Time;durP1;ratioP1;P1;durP2;ratioP2;P2;SDS_P1;SDS_P2;PMS_P1;PMS_P2;Temp;Humidity;BMP_temperature;BMP_pressure;BME280_temperature;BME280_humidity;BME280_pressure;Samples;Min_cycle;Max_cycle;Signal;HPM_P1;HPM_P2
2021/08/26 04:52:27;;;;;;;11.43;6.30;;;;;;;15.64;67.32;99519.19;812551;54;20034;-80
2021/08/26 04:53:13;;;;;;;9.02;5.35;;;;;;;15.83;66.80;99519.59;812350;47;20046;-79
2021/08/26 04:54:02;;;;;;;10.00;6.22;;;;;;;15.85;66.83;99522.97;812238;54;20561;-77
2021/08/26 04:54:48;;;;;;;12.07;6.38;;;;;;;15.74;67.32;99511.63;812315;47;20046;-76
2021/08/26 04:55:36;;;;;;;10.60;6.95;;;;;;;15.80;67.08;99511.88;812431;39;20427;-77
2021/08/26 04:56:22;;;;;;;11.63;6.90;;;;;;;15.78;67.19;99509.38;812195;54;20130;-78
2021/08/26 04:57:11;;;;;;;10.90;6.25;;;;;;;15.81;67.43;99506.31;813216;47;20042;-79
2021/08/26 04:57:57;;;;;;;8.52;5.72;;;;;;;15.78;67.14;99509.38;813391;47;20149;-78
2021/08/26 04:58:45;;;;;;;11.43;6.55;;;;;;;15.84;67.14;99515.91;813176;47;20145;-77
2021/08/26 04:59:31;;;;;;;10.82;5.90;;;;;;;15.80;67.37;99514.56;813333;47;20660;-76
2021/08/26 05:00:31;;;;;;;9.27;6.07;;;;;;;15.74;67.58;99510.78;814220;54;20035;-77
2021/08/26 05:01:16;;;;;;;8.65;5.85;;;;;;;15.99;66.83;99508.56;814126;54;20063;-78
2021/08/26 05:02:05;;;;;;;9.00;5.47;;;;;;;16.06;66.58;99520.25;813649;54;20035;-77
2021/08/26 05:02:51;;;;;;;10.15;5.43;;;;;;;15.89;66.94;99518.84;814066;47;20046;-77
2021/08/26 05:03:40;;;;;;;9.38;6.15;;;;;;;15.90;66.93;99521.34;814282;47;20055;-79
2021/08/26 05:04:26;;;;;;;8.45;5.28;;;;;;;16.10;66.60;99517.16;814120;47;20064;-77
2021/08/26 05:05:15;;;;;;;10.73;6.50;;;;;;;16.19;66.53;99510.59;814104;47;20034;-78
2021/08/26 05:06:07;;;;;;;10.65;5.40;;;;;;;16.16;66.17;99516.38;814960;54;20158;-80
2021/08/26 05:06:57;;;;;;;9.88;5.85;;;;;;;16.05;66.47;99512.34;812934;47;20042;-79
2021/08/26 05:07:52;;;;;;;9.98;6.40;;;;;;;15.99;66.78;99516.66;812689;47;20060;-79
2021/08/26 05:08:41;;;;;;;10.63;6.30;;;;;;;15.99;66.77;99513.97;812765;47;20054;-76
2021/08/26 05:09:27;;;;;;;10.05;6.47;;;;;;;15.86;67.22;99521.94;812803;47;20037;-77
2021/08/26 05:10:16;;;;;;;11.10;6.65;;;;;;;15.79;67.68;99520.97;813055;50;20031;-78
2021/08/26 05:11:02;;;;;;;12.07;7.38;;;;;;;15.83;67.38;99519.59;812779;54;20038;-76
2021/08/26 05:11:51;;;;;;;10.27;7.20;;;;;;;15.90;67.10;99526.75;812599;54;20059;-78
2021/08/26 05:12:37;;;;;;;9.98;6.18;;;;;;;15.86;67.65;99525.44;812628;54;20038;-76
2021/08/26 05:13:25;;;;;;;11.25;6.32;;;;;;;16.04;67.11;99516.06;812359;54;20041;-78
2021/08/26 05:14:12;;;;;;;10.50;6.75;;;;;;;16.17;66.42;99520.75;812280;47;20603;-77
2021/08/26 05:15:00;;;;;;;8.25;5.18;;;;;;;16.30;66.26;99526.25;812174;47;20041;-78
2021/08/26 05:15:46;;;;;;;8.45;5.28;;;;;;;16.36;65.86;99520.09;812274;47;20580;-78
2021/08/26 05:16:35;;;;;;;10.00;6.50;;;;;;;16.14;66.31;99523.84;811995;47;20034;-77
2021/08/26 05:17:21;;;;;;;9.93;6.45;;;;;;;15.96;66.94;99522.47;812242;54;20086;-78
2021/08/26 05:18:10;;;;;;;10.35;6.57;;;;;;;15.97;67.28;99525.97;811933;47;20034;-77
2021/08/26 05:18:56;;;;;;;10.05;6.22;;;;;;;15.95;67.27;99523.47;812569;54;20053;-77
2021/08/26 05:19:45;;;;;;;10.18;6.43;;;;;;;16.14;66.74;99521.97;812643;54;20638;-78
2021/08/26 05:20:31;;;;;;;11.20;6.88;;;;;;;16.15;66.52;99520.13;812239;46;20038;-77
2021/08/26 05:21:19;;;;;;;9.75;6.10;;;;;;;16.20;66.79;99525.75;811915;47;20069;-77
2021/08/26 05:22:05;;;;;;;11.57;6.53;;;;;;;16.18;66.59;99525.13;811982;46;20645;-78
2021/08/26 05:22:57;;;;;;;8.70;6.03;;;;;;;16.30;66.27;99528.97;811842;54;20077;-77
2021/08/26 05:23:43;;;;;;;10.05;5.78;;;;;;;16.25;66.52;99534.09;812526;39;20548;-76
2021/08/26 05:24:31;;;;;;;11.68;6.82;;;;;;;16.09;67.15;99526.28;811489;54;20061;-76
2021/08/26 05:25:18;;;;;;;9.52;5.93;;;;;;;16.22;67.04;99532.63;811854;47;20073;-78
2021/08/26 05:26:06;;;;;;;8.05;5.30;;;;;;;16.31;66.73;99533.34;812040;47;20041;-77
2021/08/26 05:26:53;;;;;;;9.35;6.15;;;;;;;16.34;66.77;99532.91;812101;54;20377;-76
2021/08/26 05:27:41;;;;;;;11.82;6.13;;;;;;;16.41;66.73;99534.84;812663;39;20685;-77
2021/08/26 05:28:27;;;;;;;10.65;6.20;;;;;;;16.28;67.00;99530.19;811977;47;20061;-77
2021/08/26 05:29:16;;;;;;;9.88;6.45;;;;;;;16.16;67.37;99529.88;811689;47;20035;-76
2021/08/26 05:30:02;;;;;;;9.27;6.30;;;;;;;16.28;66.81;99528.31;811534;47;20097;-78
2021/08/26 05:30:51;;;;;;;10.13;6.60;;;;;;;16.38;66.71;99528.81;812066;54;20133;-77
2021/08/26 05:31:37;;;;;;;12.25;7.82;;;;;;;16.15;67.39;99530.91;812080;39;20566;-77
2021/08/26 05:32:26;;;;;;;9.85;6.75;;;;;;;16.34;66.81;99532.91;812002;47;20193;-77
2021/08/26 05:33:12;;;;;;;12.45;7.30;;;;;;;16.15;67.40;99528.22;811571;47;20080;-77
2021/08/26 05:34:01;;;;;;;12.68;8.32;;;;;;;15.99;67.83;99532.84;811661;47;20027;-77
2021/08/26 05:34:47;;;;;;;10.95;7.40;;;;;;;16.21;67.13;99536.34;812173;39;20433;-77
2021/08/26 05:35:36;;;;;;;9.30;6.35;;;;;;;16.23;67.03;99533.47;811808;54;20080;-78
2021/08/26 05:36:22;;;;;;;9.45;6.25;;;;;;;16.34;66.51;99538.31;811749;54;20886;-77
2021/08/26 05:37:10;;;;;;;8.93;6.28;;;;;;;16.43;66.32;99538.19;811940;54;20077;-77
2021/08/26 05:37:59;;;;;;;8.27;5.15;;;;;;;16.51;66.06;99543.44;812244;39;20481;-78
2021/08/26 05:38:47;;;;;;;9.25;6.10;;;;;;;16.28;66.79;99539.09;812517;39;20521;-78
2021/08/26 05:39:33;;;;;;;10.93;6.95;;;;;;;16.25;67.10;99538.66;811848;47;20046;-79
2021/08/26 05:40:22;;;;;;;9.70;6.55;;;;;;;16.34;66.94;99540.19;813259;39;20609;-76
2021/08/26 05:41:11;;;;;;;10.90;6.78;;;;;;;16.20;67.25;99544.63;811978;47;20068;-77
2021/08/26 05:41:59;;;;;;;11.15;6.95;;;;;;;16.23;66.93;99538.88;812066;54;20034;-77
2021/08/26 05:42:45;;;;;;;10.95;7.60;;;;;;;16.16;67.41;99540.66;812381;47;20043;-75
2021/08/26 05:43:34;;;;;;;9.38;6.80;;;;;;;16.33;66.96;99536.69;812142;47;20629;-77
2021/08/26 05:44:20;;;;;;;9.27;5.75;;;;;;;16.42;66.53;99541.94;812124;47;20153;-80
2021/08/26 05:45:10;;;;;;;12.25;6.57;;;;;;;16.46;66.45;99535.94;812216;39;20261;-75
2021/08/26 05:45:56;;;;;;;12.07;6.32;;;;;;;16.31;66.78;99533.34;812919;39;20538;-78
2021/08/26 05:46:45;;;;;;;11.27;6.97;;;;;;;16.03;67.08;99534.13;811807;54;20035;-76
2021/08/26 05:47:31;;;;;;;10.73;7.88;;;;;;;16.02;67.58;99542.38;811881;47;20102;-76
2021/08/26 05:48:20;;;;;;;13.07;7.57;;;;;;;16.11;67.24;99533.13;812057;54;20042;-77
2021/08/26 05:49:06;;;;;;;11.93;7.30;;;;;;;16.13;67.29;99547.28;812141;54;20056;-77
2021/08/26 05:49:54;;;;;;;10.80;6.70;;;;;;;16.16;66.98;99536.09;812107;54;20034;-74
2021/08/26 05:50:40;;;;;;;12.93;7.45;;;;;;;16.13;67.07;99533.78;812032;54;20081;-77
2021/08/26 05:51:29;;;;;;;11.65;6.22;;;;;;;16.22;66.89;99538.03;812314;54;20038;-77
2021/08/26 05:52:15;;;;;;;10.27;6.53;;;;;;;16.18;67.02;99544.00;811554;54;20034;-76
2021/08/26 05:53:06;;;;;;;11.00;6.63;;;;;;;16.20;67.11;99547.34;811632;54;20069;-76
2021/08/26 05:53:52;;;;;;;8.10;5.72;;;;;;;16.31;66.93;99544.13;813404;31;20544;-77
2021/08/26 05:54:41;;;;;;;9.40;6.32;;;;;;;16.28;66.98;99544.50;812374;54;20034;-79
2021/08/26 05:55:27;;;;;;;9.05;5.80;;;;;;;16.35;66.45;99545.38;812013;47;20090;-77
2021/08/26 05:56:16;;;;;;;9.13;6.40;;;;;;;16.31;66.69;99549.50;811971;54;20040;-77
2021/08/26 05:57:03;;;;;;;11.52;6.68;;;;;;;16.27;66.59;99539.31;811958;54;20055;-76
2021/08/26 05:57:52;;;;;;;10.73;6.45;;;;;;;16.16;67.22;99548.75;812254;47;20062;-76
2021/08/26 05:58:37;;;;;;;8.38;6.05;;;;;;;16.26;66.90;99545.72;812774;31;20653;-78
2021/08/26 05:59:26;;;;;;;10.68;6.70;;;;;;;16.19;67.09;99546.50;812219;47;20034;-77
2021/08/26 06:00:14;;;;;;;11.50;7.10;;;;;;;16.12;67.27;99544.78;811953;54;20042;-78
2021/08/26 06:01:02;;;;;;;10.27;6.60;;;;;;;16.21;66.99;99539.03;812543;54;20060;-76
2021/08/26 06:01:49;;;;;;;12.52;6.68;;;;;;;16.12;67.55;99542.09;812049;54;20057;-77
2021/08/26 06:02:38;;;;;;;10.00;6.75;;;;;;;16.02;67.42;99543.25;811622;47;20069;-77
2021/08/26 06:03:24;;;;;;;10.27;6.70;;;;;;;16.06;67.48;99541.81;811948;47;20601;-78
2021/08/26 06:04:16;;;;;;;9.70;6.25;;;;;;;16.03;67.56;99547.59;811703;54;20035;-78
2021/08/26 06:05:02;;;;;;;8.68;5.57;;;;;;;16.22;67.09;99545.28;814147;47;20149;-79
2021/08/26 06:05:57;;;;;;;9.43;6.22;;;;;;;16.27;66.71;99537.44;812849;54;20946;-79
2021/08/26 06:06:43;;;;;;;9.30;6.28;;;;;;;16.17;67.19;99531.53;812929;54;20079;-80
2021/08/26 06:07:32;;;;;;;10.98;6.28;;;;;;;16.26;66.87;99537.63;812475;47;20040;-78
2021/08/26 06:08:22;;;;;;;8.02;5.35;;;;;;;16.35;66.46;99542.69;812222;54;20038;-79
2021/08/26 06:09:11;;;;;;;7.82;5.97;;;;;;;16.18;66.91;99544.84;813021;54;20035;-79
2021/08/26 06:09:57;;;;;;;9.75;6.00;;;;;;;16.21;67.19;99538.22;812094;54;20558;-80
2021/08/26 06:10:46;;;;;;;12.05;6.68;;;;;;;16.16;67.23;99548.75;812185;54;20042;-79
2021/08/26 06:11:32;;;;;;;11.63;6.35;;;;;;;16.13;67.40;99547.28;812057;47;20063;-79
2021/08/26 06:12:20;;;;;;;14.25;6.18;;;;;;;16.21;67.24;99544.44;812303;54;20035;-79
2021/08/26 06:13:06;;;;;;;8.38;5.22;;;;;;;16.33;67.09;99543.91;812376;47;20047;-79
2021/08/26 06:13:55;;;;;;;10.05;6.00;;;;;;;16.33;66.66;99547.47;812392;47;20577;-79
2021/08/26 06:14:41;;;;;;;10.02;6.45;;;;;;;16.20;67.21;99544.63;812375;47;20050;-78
2021/08/26 06:15:30;;;;;;;11.50;6.50;;;;;;;16.17;67.30;99553.09;812741;54;20066;-78
2021/08/26 06:16:16;;;;;;;11.07;6.97;;;;;;;15.98;67.93;99547.34;812711;39;20554;-78
2021/08/26 06:17:05;;;;;;;10.68;6.55;;;;;;;16.16;67.49;99556.81;812602;47;20034;-79
2021/08/26 06:17:51;;;;;;;9.90;6.20;;;;;;;16.26;67.47;99551.94;812334;47;20600;-78
2021/08/26 06:18:39;;;;;;;10.95;6.63;;;;;;;16.12;67.56;99558.25;812512;53;20068;-79
2021/08/26 06:19:25;;;;;;;11.55;7.72;;;;;;;15.93;68.30;99557.88;812718;54;20071;-79
2021/08/26 06:20:16;;;;;;;12.82;7.50;;;;;;;15.86;68.86;99551.59;813091;54;20035;-79
2021/08/26 06:21:02;;;;;;;11.10;7.07;;;;;;;16.02;68.24;99559.41;812871;54;20046;-79
2021/08/26 06:21:50;;;;;;;12.05;7.43;;;;;;;16.15;68.09;99555.19;812309;47;20034;-79
2021/08/26 06:22:37;;;;;;;12.55;6.72;;;;;;;16.28;67.50;99549.06;813120;54;20063;-77
2021/08/26 06:23:28;;;;;;;9.68;6.30;;;;;;;16.37;67.55;99554.13;812369;47;20034;-78
2021/08/26 06:24:14;;;;;;;11.52;7.53;;;;;;;16.15;68.14;99557.88;812591;47;20071;-78
2021/08/26 06:25:03;;;;;;;11.50;6.95;;;;;;;16.20;68.24;99555.44;812231;54;20141;-78
2021/08/26 06:25:49;;;;;;;9.65;6.60;;;;;;;16.23;68.07;99549.66;813656;39;20636;-78
2021/08/26 06:26:39;;;;;;;11.57;6.95;;;;;;;16.05;68.38;99552.78;812357;54;20043;-78
2021/08/26 06:27:25;;;;;;;10.07;6.78;;;;;;;16.03;68.85;99553.00;812810;47;20038;-78
2021/08/26 06:28:14;;;;;;;11.15;7.03;;;;;;;15.97;68.77;99558.31;812776;54;20042;-78
2021/08/26 06:29:00;;;;;;;10.23;6.25;;;;;;;16.16;68.42;99560.38;812057;47;20047;-78
2021/08/26 06:29:49;;;;;;;10.77;7.15;;;;;;;16.01;69.04;99555.03;812175;54;20034;-77
2021/08/26 06:30:35;;;;;;;11.25;7.38;;;;;;;16.09;68.70;99555.94;812115;54;20039;-78
2021/08/26 06:31:24;;;;;;;11.73;7.18;;;;;;;16.12;68.57;99558.25;812399;54;20038;-77
2021/08/26 06:32:09;;;;;;;9.27;6.25;;;;;;;16.17;68.42;99556.66;812874;39;20407;-79
2021/08/26 06:32:58;;;;;;;11.77;6.80;;;;;;;16.10;68.99;99563.00;812520;53;20049;-78
2021/08/26 06:33:45;;;;;;;9.73;6.80;;;;;;;16.18;68.75;99566.41;813002;54;20027;-78
2021/08/26 06:34:33;;;;;;;10.32;6.18;;;;;;;16.31;68.26;99552.22;812852;54;20092;-78
2021/08/26 06:35:19;;;;;;;8.48;5.50;;;;;;;16.38;68.12;99563.88;812521;47;20067;-79
2021/08/26 06:36:08;;;;;;;8.95;6.55;;;;;;;16.21;68.93;99562.50;812584;54;20069;-79
2021/08/26 06:36:54;;;;;;;11.23;8.68;;;;;;;16.34;68.39;99564.47;812998;54;20071;-78
2021/08/26 06:37:43;;;;;;;9.05;6.90;;;;;;;16.42;68.12;99560.81;813028;54;20034;-78
2021/08/26 06:38:32;;;;;;;8.68;6.63;;;;;;;16.42;68.48;99560.81;812764;47;20189;-78
2021/08/26 06:39:20;;;;;;;9.77;7.05;;;;;;;16.42;68.70;99566.19;812746;54;20077;-79
2021/08/26 06:40:08;;;;;;;11.90;6.53;;;;;;;16.47;68.70;99561.03;812945;54;20133;-78
2021/08/26 06:40:56;;;;;;;10.23;6.43;;;;;;;16.40;68.96;99563.69;813438;47;20138;-79
2021/08/26 06:41:44;;;;;;;9.20;6.38;;;;;;;16.47;68.49;99563.75;813526;54;20064;-78
2021/08/26 06:42:32;;;;;;;9.05;5.80;;;;;;;16.51;68.61;99563.16;813631;47;20046;-78
2021/08/26 06:43:18;;;;;;;10.23;5.85;;;;;;;16.55;68.76;99560.06;813030;47;20038;-78
2021/08/26 06:44:07;;;;;;;11.85;6.68;;;;;;;16.49;69.02;99564.38;812905;54;20034;-77
2021/08/26 06:45:00;;;;;;;9.85;6.93;;;;;;;16.45;70.04;99558.56;812631;47;20031;-78
2021/08/26 06:45:49;;;;;;;8.43;5.53;;;;;;;16.50;69.35;99564.19;812336;47;20034;-78
2021/08/26 06:46:35;;;;;;;8.55;5.30;;;;;;;16.57;69.25;99568.81;812406;54;20050;-77
2021/08/26 06:47:23;;;;;;;7.70;5.78;;;;;;;16.55;69.54;99560.91;812420;47;20633;-78
2021/08/26 06:48:09;;;;;;;9.40;6.78;;;;;;;16.44;70.04;99558.72;812564;54;20063;-77
2021/08/26 06:48:59;;;;;;;12.25;8.68;;;;;;;16.37;70.60;99569.47;812637;54;20046;-77
2021/08/26 06:49:45;;;;;;;10.75;8.32;;;;;;;16.30;70.84;99566.72;812604;47;20031;-76
2021/08/26 06:50:33;;;;;;;11.75;7.75;;;;;;;16.31;70.90;99564.84;812460;47;20035;-77
2021/08/26 06:51:20;;;;;;;10.23;7.60;;;;;;;16.34;70.86;99567.16;812663;47;20687;-78
2021/08/26 06:52:09;;;;;;;9.38;6.75;;;;;;;16.37;70.73;99564.09;812839;47;20034;-78
2021/08/26 06:52:55;;;;;;;9.15;6.70;;;;;;;16.41;70.64;99569.94;812844;54;20038;-78
2021/08/26 06:53:46;;;;;;;8.55;6.43;;;;;;;16.42;70.87;99566.19;812208;54;20038;-79
2021/08/26 06:54:32;;;;;;;8.23;5.63;;;;;;;16.43;70.89;99557.91;812941;54;20046;-79
2021/08/26 06:55:21;;;;;;;9.98;6.40;;;;;;;16.40;71.05;99562.84;813003;47;20041;-79
2021/08/26 06:56:07;;;;;;;10.13;7.50;;;;;;;16.22;72.09;99572.25;812833;47;20179;-78
2021/08/26 06:56:55;;;;;;;9.40;6.45;;;;;;;16.28;72.06;99576.03;812942;54;20042;-78
2021/08/26 06:57:41;;;;;;;10.63;7.47;;;;;;;16.08;72.39;99571.28;812932;54;20039;-79
2021/08/26 06:58:30;;;;;;;11.07;6.95;;;;;;;16.22;72.18;99567.69;813426;39;20445;-79
2021/08/26 06:59:16;;;;;;;10.02;7.40;;;;;;;16.23;72.11;99573.94;812874;54;20667;-78
2021/08/26 07:00:06;;;;;;;9.55;6.15;;;;;;;16.25;72.23;99566.44;813047;54;20114;-79
2021/08/26 07:00:52;;;;;;;8.57;6.05;;;;;;;16.30;72.18;99566.72;812939;47;20099;-77
2021/08/26 07:01:40;;;;;;;9.88;6.95;;;;;;;16.24;72.31;99564.81;812977;47;20034;-78
2021/08/26 07:02:26;;;;;;;8.77;6.82;;;;;;;16.26;72.22;99567.31;813115;54;20068;-78
2021/08/26 07:03:15;;;;;;;9.00;6.75;;;;;;;16.27;72.23;99568.97;813134;54;20034;-79
2021/08/26 07:04:01;;;;;;;10.30;7.10;;;;;;;16.34;72.21;99562.59;813439;47;20084;-80
2021/08/26 07:04:49;;;;;;;8.60;6.30;;;;;;;16.38;71.99;99571.97;813765;54;20130;-79
2021/08/26 07:05:37;;;;;;;9.15;6.22;;;;;;;16.41;71.85;99569.94;814021;47;20138;-79
2021/08/26 07:06:31;;;;;;;9.18;6.57;;;;;;;16.41;72.34;99575.31;814692;54;20042;-79
2021/08/26 07:07:17;;;;;;;7.93;6.10;;;;;;;16.43;72.12;99565.19;813681;47;20039;-78
2021/08/26 07:08:07;;;;;;;8.40;5.60;;;;;;;16.44;72.28;99564.97;812930;54;20076;-79
2021/08/26 07:08:56;;;;;;;9.23;6.13;;;;;;;16.36;73.11;99565.13;813158;54;20046;-79
2021/08/26 07:09:45;;;;;;;9.75;7.65;;;;;;;16.21;73.28;99575.97;813039;54;20050;-78
2021/08/26 07:10:31;;;;;;;9.95;7.18;;;;;;;16.35;72.90;99568.84;813692;39;20525;-79
2021/08/26 07:11:19;;;;;;;11.52;7.97;;;;;;;16.20;73.60;99574.31;812569;54;20034;-79
2021/08/26 07:12:06;;;;;;;14.13;9.35;;;;;;;15.92;74.30;99566.16;812670;47;20038;-79
2021/08/26 07:12:55;;;;;;;15.20;10.02;;;;;;;15.79;75.05;99573.03;812686;47;20042;-80
2021/08/26 07:13:41;;;;;;;11.15;8.73;;;;;;;16.01;74.70;99573.09;813210;54;20062;-79
2021/08/26 07:14:30;;;;;;;15.63;8.15;;;;;;;16.12;74.19;99569.03;812644;47;20034;-79
2021/08/26 07:15:16;;;;;;;12.77;9.27;;;;;;;15.96;74.61;99570.97;812609;47;20588;-78
2021/08/26 07:16:05;;;;;;;12.23;9.45;;;;;;;15.88;74.97;99579.16;812737;54;20042;-79
2021/08/26 07:16:51;;;;;;;11.32;8.10;;;;;;;15.93;74.82;99573.19;812829;54;20038;-78
2021/08/26 07:17:39;;;;;;;15.32;9.23;;;;;;;15.78;75.59;99570.50;815171;39;20799;-79
2021/08/26 07:18:25;;;;;;;12.77;9.88;;;;;;;15.75;75.69;99579.81;813199;54;20046;-77
2021/08/26 07:19:14;;;;;;;12.88;8.65;;;;;;;15.77;75.78;99579.66;812701;47;20070;-78
2021/08/26 07:20:00;;;;;;;12.65;9.43;;;;;;;15.72;75.58;99577.53;812718;47;20610;-78
2021/08/26 07:20:48;;;;;;;13.30;9.82;;;;;;;15.80;75.79;99576.56;812552;47;20076;-78
2021/08/26 07:21:34;;;;;;;10.15;8.50;;;;;;;15.86;75.38;99578.53;812574;47;20042;-79
2021/08/26 07:22:23;;;;;;;10.85;8.45;;;;;;;15.72;75.80;99578.34;813742;39;20219;-79
2021/08/26 07:23:09;;;;;;;12.43;9.57;;;;;;;15.55;76.38;99585.81;813086;46;20091;-78
2021/08/26 07:24:00;;;;;;;16.25;10.00;;;;;;;15.38;77.38;99577.13;812834;47;20684;-78
2021/08/26 07:24:46;;;;;;;13.95;10.15;;;;;;;15.43;77.30;99585.47;812600;47;20745;-79
2021/08/26 07:25:35;;;;;;;16.15;10.20;;;;;;;15.62;76.33;99577.81;812395;54;20042;-79
2021/08/26 07:26:21;;;;;;;11.90;8.38;;;;;;;15.74;76.18;99573.59;812661;47;20078;-79
2021/08/26 07:27:10;;;;;;;11.23;8.63;;;;;;;15.82;75.88;99572.63;812822;54;20034;-79
2021/08/26 07:27:56;;;;;;;11.60;8.88;;;;;;;15.73;75.98;99563.84;812394;47;20046;-79
2021/08/26 07:28:44;;;;;;;13.23;8.27;;;;;;;15.84;75.93;99567.09;812910;54;20813;-78
2021/08/26 07:29:30;;;;;;;10.27;8.38;;;;;;;15.83;76.14;99573.47;813364;39;20423;-78
2021/08/26 07:30:19;;;;;;;12.35;9.20;;;;;;;15.67;76.80;99571.84;812779;47;20034;-78
2021/08/26 07:31:05;;;;;;;11.93;8.88;;;;;;;15.81;76.58;99562.06;812366;54;23338;-79
2021/08/26 07:31:53;;;;;;;11.18;8.52;;;;;;;15.77;76.75;99563.47;812803;47;20034;-79
2021/08/26 07:32:39;;;;;;;11.13;8.80;;;;;;;15.74;76.73;99570.06;812993;54;20046;-78
2021/08/26 07:33:29;;;;;;;15.07;10.82;;;;;;;15.44;77.97;99575.53;813063;54;20043;-79
2021/08/26 07:34:17;;;;;;;12.82;10.50;;;;;;;15.44;78.14;99570.97;812880;47;20038;-78
2021/08/26 07:35:06;;;;;;;13.90;10.23;;;;;;;15.28;78.84;99565.81;813580;54;20030;-80
2021/08/26 07:35:54;;;;;;;12.40;10.05;;;;;;;15.42;78.36;99562.25;812878;54;20038;-78
2021/08/26 07:36:43;;;;;;;10.75;8.98;;;;;;;15.45;78.27;99563.72;813325;54;20124;-78
2021/08/26 07:37:29;;;;;;;12.77;10.60;;;;;;;15.39;78.53;99569.88;812804;54;20095;-78
2021/08/26 07:38:17;;;;;;;16.58;11.43;;;;;;;15.29;79.02;99567.47;813026;54;20172;-79
2021/08/26 07:39:06;;;;;;;14.77;11.50;;;;;;;15.19;79.66;99570.44;813396;54;20034;-78
2021/08/26 07:39:55;;;;;;;14.27;11.10;;;;;;;15.09;79.90;99573.44;813058;54;20102;-79
2021/08/26 07:40:41;;;;;;;12.82;11.32;;;;;;;15.20;79.79;99573.97;812885;47;20072;-77
2021/08/26 07:41:29;;;;;;;11.52;9.15;;;;;;;15.38;79.04;99566.34;812743;47;20097;-79
2021/08/26 07:42:16;;;;;;;12.43;10.23;;;;;;;15.27;79.55;99574.91;812952;47;20097;-80
2021/08/26 07:43:05;;;;;;;13.38;9.95;;;;;;;15.35;79.20;99574.78;812657;47;20034;-78
2021/08/26 07:43:51;;;;;;;14.10;11.23;;;;;;;15.31;79.54;99581.56;812871;47;20072;-80
2021/08/26 07:44:40;;;;;;;12.82;9.93;;;;;;;15.44;79.35;99570.97;812471;54;20062;-80
2021/08/26 07:45:26;;;;;;;11.25;9.13;;;;;;;15.54;79.04;99586.81;812919;54;20042;-79
2021/08/26 07:46:14;;;;;;;12.60;10.00;;;;;;;15.53;79.07;99579.78;813072;54;20042;-79
2021/08/26 07:47:00;;;;;;;14.10;10.50;;;;;;;15.33;79.49;99574.13;812889;47;20056;-79
2021/08/26 07:47:49;;;;;;;13.98;10.82;;;;;;;15.25;79.85;99574.25;813066;39;20771;-78
2021/08/26 07:48:35;;;;;;;12.02;9.52;;;;;;;15.43;79.00;99576.56;812921;47;20081;-79
2021/08/26 07:49:24;;;;;;;10.77;9.02;;;;;;;15.49;78.74;99574.97;813284;39;20558;-78
2021/08/26 07:50:11;;;;;;;11.90;8.68;;;;;;;15.59;78.34;99578.19;812732;54;20034;-80
2021/08/26 07:51:03;;;;;;;11.27;8.93;;;;;;;15.42;79.16;99578.41;812682;54;20046;-79
2021/08/26 07:51:49;;;;;;;9.95;8.68;;;;;;;15.54;78.80;99575.22;812494;54;20050;-78
2021/08/26 07:52:37;;;;;;;12.30;8.25;;;;;;;15.66;78.38;99571.03;812636;54;20038;-78
2021/08/26 07:53:23;;;;;;;10.95;8.63;;;;;;;15.58;78.49;99571.97;812717;47;20038;-80
2021/08/26 07:54:15;;;;;;;11.65;9.82;;;;;;;15.52;79.01;99571.88;812676;54;20037;-79
2021/08/26 07:55:02;;;;;;;12.85;9.60;;;;;;;15.50;78.80;99576.63;812834;47;20080;-80
2021/08/26 07:55:51;;;;;;;13.55;10.90;;;;;;;15.39;79.22;99577.94;813843;54;20054;-78
2021/08/26 07:56:38;;;;;;;11.35;10.02;;;;;;;15.43;79.24;99569.31;812750;47;20071;-78
2021/08/26 07:57:27;;;;;;;11.82;9.93;;;;;;;15.49;79.04;99573.09;813247;54;20034;-79
2021/08/26 07:58:13;;;;;;;12.05;9.90;;;;;;;15.39;79.39;99578.78;813337;39;20395;-79
2021/08/26 07:59:01;;;;;;;11.40;9.00;;;;;;;15.56;79.04;99570.50;813141;47;20034;-79
2021/08/26 07:59:47;;;;;;;10.25;8.73;;;;;;;15.59;78.96;99570.09;812984;54;20039;-79
2021/08/26 08:00:36;;;;;;;13.40;10.60;;;;;;;15.45;79.45;99571.78;812994;47;20137;-79
2021/08/26 08:01:22;;;;;;;12.88;10.40;;;;;;;15.29;79.84;99562.09;812827;47;20640;-79
2021/08/26 08:02:10;;;;;;;12.93;10.70;;;;;;;15.20;80.08;99572.09;812804;54;20034;-78
2021/08/26 08:02:56;;;;;;;11.80;10.07;;;;;;;15.24;80.19;99564.50;812815;54;20039;-78
2021/08/26 08:03:45;;;;;;;14.13;10.98;;;;;;;15.18;80.41;99567.94;813261;47;20034;-80
2021/08/26 08:04:31;;;;;;;13.20;10.65;;;;;;;15.31;80.18;99567.28;812957;47;20072;-80
2021/08/26 08:05:20;;;;;;;12.88;10.05;;;;;;;15.21;80.76;99570.28;813299;47;20042;-78
2021/08/26 08:06:06;;;;;;;12.85;10.68;;;;;;;15.32;80.54;99560.88;813312;47;20073;-78
2021/08/26 08:06:54;;;;;;;11.15;9.60;;;;;;;15.43;80.07;99561.22;813089;54;20042;-79
2021/08/26 08:07:44;;;;;;;11.25;9.32;;;;;;;15.34;79.99;99562.34;813252;54;20042;-79
2021/08/26 08:08:33;;;;;;;;;;;;;;;15.32;80.93;99566.25;813089;54;20042;-78
2021/08/26 08:09:21;;;;;;;12.63;9.48;;;;;;;15.25;80.51;99560.78;813359;47;19972;-79
2021/08/26 08:10:10;;;;;;;11.73;9.30;;;;;;;15.25;80.63;99560.78;813122;54;20057;-78
2021/08/26 08:10:56;;;;;;;12.15;9.38;;;;;;;15.22;80.92;99563.84;812950;54;20076;-79
2021/08/26 08:11:45;;;;;;;10.50;7.80;;;;;;;15.39;80.47;99561.78;813015;47;20034;-79
2021/08/26 08:12:31;;;;;;;11.98;8.75;;;;;;;15.44;79.92;99560.19;812899;54;20148;-79
2021/08/26 08:13:19;;;;;;;11.02;8.88;;;;;;;15.39;80.04;99562.63;813164;54;20054;-80
2021/08/26 08:14:05;;;;;;;9.20;7.40;;;;;;;15.50;80.07;99569.38;813708;39;20494;-79
2021/08/26 08:14:55;;;;;;;10.70;8.35;;;;;;;15.41;80.29;99557.88;812930;54;20069;-81
2021/08/26 08:15:43;;;;;;;9.93;8.07;;;;;;;15.32;80.47;99560.88;813293;54;20074;-78
2021/08/26 08:16:33;;;;;;;9.77;8.23;;;;;;;15.53;80.07;99560.09;813388;54;20076;-78
2021/08/26 08:17:18;;;;;;;9.73;7.88;;;;;;;15.54;79.58;99559.06;813083;47;20058;-78
2021/08/26 08:18:07;;;;;;;9.25;7.50;;;;;;;15.63;79.75;99557.94;813267;47;20041;-80
2021/08/26 08:18:53;;;;;;;10.10;8.40;;;;;;;15.56;79.58;99563.22;813155;47;20046;-79
2021/08/26 08:19:42;;;;;;;10.45;7.97;;;;;;;15.55;79.43;99563.44;813315;54;20069;-79
2021/08/26 08:20:28;;;;;;;10.10;8.27;;;;;;;15.43;80.20;99558.53;813240;54;20063;-79
2021/08/26 08:21:16;;;;;;;10.15;8.30;;;;;;;15.38;80.23;99558.28;813277;47;20035;-78
2021/08/26 08:22:03;;;;;;;10.02;8.10;;;;;;;15.49;80.04;99553.41;813305;47;20040;-78
2021/08/26 08:22:53;;;;;;;9.43;7.25;;;;;;;15.64;79.36;99548.81;813266;47;20046;-79
2021/08/26 08:23:40;;;;;;;9.43;7.82;;;;;;;15.51;79.67;99554.03;813433;54;20144;-79
2021/08/26 08:24:32;;;;;;;11.15;8.43;;;;;;;15.50;79.80;99541.59;813360;54;20083;-79
2021/08/26 08:25:18;;;;;;;11.68;8.30;;;;;;;15.41;80.02;99547.09;813491;47;20065;-79
2021/08/26 08:26:10;;;;;;;12.90;8.23;;;;;;;15.36;80.38;99556.75;813493;54;20610;-79
2021/08/26 08:26:58;;;;;;;11.05;8.13;;;;;;;15.43;80.26;99557.72;813000;47;20090;-79
2021/08/26 08:27:46;;;;;;;11.38;8.68;;;;;;;15.38;80.34;99558.28;813719;54;20110;-78
2021/08/26 08:28:32;;;;;;;9.68;7.90;;;;;;;15.36;80.53;99554.91;813293;47;20046;-80
2021/08/26 08:29:21;;;;;;;8.93;7.68;;;;;;;15.41;80.50;99560.56;813364;47;20042;-80
2021/08/26 08:30:08;;;;;;;9.38;7.65;;;;;;;15.25;80.82;99556.25;813644;54;20095;-79
2021/08/26 08:30:57;;;;;;;10.65;9.00;;;;;;;15.37;80.84;99556.59;813256;47;20069;-80
2021/08/26 08:31:44;;;;;;;10.40;8.57;;;;;;;15.25;80.84;99558.09;813468;54;20054;-79
2021/08/26 08:32:32;;;;;;;9.90;7.60;;;;;;;15.34;80.66;99561.53;813302;47;20046;-80
2021/08/26 08:33:18;;;;;;;9.02;7.40;;;;;;;15.48;79.99;99555.25;813646;46;20082;-78
2021/08/26 08:34:07;;;;;;;8.35;6.90;;;;;;;15.52;79.90;99556.56;813655;54;20079;-77
2021/08/26 08:34:53;;;;;;;11.93;8.00;;;;;;;15.43;80.17;99553.13;813522;47;20064;-80
2021/08/26 08:35:42;;;;;;;10.52;8.02;;;;;;;15.63;79.89;99552.53;813679;54;20578;-79
2021/08/26 08:36:28;;;;;;;10.73;7.38;;;;;;;15.57;80.06;99556.00;813649;54;20110;-79
2021/08/26 08:37:17;;;;;;;10.05;7.80;;;;;;;15.49;80.38;99556.94;813262;47;20679;-79
2021/08/26 08:38:03;;;;;;;10.32;8.02;;;;;;;15.56;80.50;99559.72;813310;54;20072;-78